createdAt,value
2023-02-02T00:02:41.719Z,99591.06
2023-02-02T00:06:43.675Z,99577.88
2023-02-02T00:10:45.751Z,99584.56
2023-02-02T00:14:47.504Z,99575.84
2023-02-02T00:18:49.481Z,99581.44
2023-02-02T00:22:53.708Z,99575.44
2023-02-02T00:26:58.460Z,99566.78
2023-02-02T00:31:00.397Z,99564.66
2023-02-02T00:35:02.455Z,99566.66
2023-02-02T00:39:04.336Z,99575.03
2023-02-02T00:43:06.200Z,99560.34
2023-02-02T00:47:08.130Z,99556.81
2023-02-02T00:51:10.094Z,99557.50
2023-02-02T00:55:12.180Z,99565.72
2023-02-02T00:59:14.018Z,99556.19
2023-02-02T01:03:16.298Z,99564.66
2023-02-02T01:07:18.141Z,99561.09
2023-02-02T01:11:20.129Z,99558.63
2023-02-02T01:20:48.376Z,99565.00
2023-02-02T01:24:50.288Z,99578.97
2023-02-02T01:28:52.154Z,99584.88
2023-02-02T01:32:53.995Z,99573.03
2023-02-02T01:36:55.845Z,99571.16
2023-02-02T01:40:58.052Z,99559.63
2023-02-02T01:45:24.569Z,99554.56
2023-02-02T01:49:26.506Z,99560.13
2023-02-02T01:53:28.812Z,99555.63
2023-02-02T01:57:42.614Z,99565.06
2023-02-02T02:01:45.180Z,99562.41
2023-02-02T02:06:07.694Z,99568.47
2023-02-02T02:10:10.378Z,99550.81
2023-02-02T02:14:31.919Z,99561.28
2023-02-02T02:18:59.735Z,99572.56
2023-02-02T02:23:42.557Z,99572.22
2023-02-02T02:28:21.930Z,99555.41
2023-02-02T02:32:44.842Z,99566.22
2023-02-02T02:36:51.771Z,99556.44
2023-02-02T02:41:00.256Z,99571.88
2023-02-02T02:45:03.313Z,99560.47
2023-02-02T02:49:08.096Z,99561.88
2023-02-02T02:53:23.143Z,99552.56
2023-02-02T02:57:55.683Z,99575.75
2023-02-02T03:03:06.266Z,99565.75
2023-02-02T03:07:18.793Z,99561.06
2023-02-02T03:11:20.495Z,99565.75
2023-02-02T03:15:22.695Z,99580.09
2023-02-02T03:19:24.625Z,99583.41
2023-02-02T03:23:26.773Z,99583.53
2023-02-02T03:27:28.701Z,99590.91
2023-02-02T03:31:30.518Z,99587.41
2023-02-02T03:35:32.475Z,99588.34
2023-02-02T03:39:37.351Z,99578.69
2023-02-02T03:43:39.293Z,99583.75
2023-02-02T03:47:41.322Z,99586.69
2023-02-02T03:51:44.823Z,99591.16
2023-02-02T03:56:03.239Z,99599.38
2023-02-02T04:00:23.256Z,99591.16
2023-02-02T04:04:27.213Z,99586.47
2023-02-02T04:08:31.636Z,99596.25
2023-02-02T04:12:33.667Z,99616.34
2023-02-02T04:16:37.696Z,99613.19
2023-02-02T04:20:39.755Z,99614.25
2023-02-02T04:24:44.085Z,99621.16
2023-02-02T04:28:48.570Z,99625.63
2023-02-02T04:32:51.529Z,99635.06
2023-02-02T04:36:53.604Z,99639.16
2023-02-02T04:40:55.950Z,99641.66
2023-02-02T04:45:00.369Z,99640.47
2023-02-02T04:49:02.433Z,99625.63
2023-02-02T04:53:04.915Z,99640.00
2023-02-02T04:57:06.793Z,99630.94
2023-02-02T05:01:28.420Z,99633.41
2023-02-02T05:05:34.202Z,99641.44
2023-02-02T05:09:40.873Z,99643.91
2023-02-02T05:13:51.413Z,99640.13
2023-02-02T05:17:55.662Z,99664.84
2023-02-02T05:22:00.089Z,99655.44
2023-02-02T05:26:04.503Z,99682.03
2023-02-02T05:30:07.509Z,99679.91
2023-02-02T05:34:11.519Z,99716.16
2023-02-02T05:38:16.328Z,99688.63
2023-02-02T05:42:18.212Z,99689.78
2023-02-02T05:46:20.187Z,99688.28
2023-02-02T05:50:24.899Z,99693.59
2023-02-02T05:54:26.757Z,99695.81
2023-02-02T05:58:28.656Z,99697.09
2023-02-02T06:02:42.228Z,99714.31
2023-02-02T06:07:19.148Z,99729.84
2023-02-02T06:11:20.860Z,99728.31
2023-02-02T06:15:22.913Z,99733.25
2023-02-02T06:19:27.659Z,99739.72
2023-02-02T06:23:29.930Z,99739.03
2023-02-02T06:27:34.515Z,99760.91
2023-02-02T06:31:40.389Z,99763.97
2023-02-02T06:35:42.579Z,99763.88
2023-02-02T06:39:44.500Z,99755.25
2023-02-02T06:43:48.983Z,99768.69
2023-02-02T06:47:51.057Z,99772.22
2023-02-02T06:51:52.884Z,99784.69
2023-02-02T06:55:57.179Z,99796.25
2023-02-02T07:00:01.769Z,99807.81
2023-02-02T07:04:03.907Z,99792.81
2023-02-02T07:08:05.916Z,99795.31
2023-02-02T07:12:13.408Z,99806.88
2023-02-02T07:16:16.543Z,99811.44
2023-02-02T07:20:18.608Z,99812.00
2023-02-02T07:24:22.781Z,99810.28
2023-02-02T07:28:24.588Z,99814.19
2023-02-02T07:32:26.517Z,99832.31
2023-02-02T07:36:41.589Z,99824.03
2023-02-02T07:40:43.614Z,99828.66
2023-02-02T07:44:45.426Z,99836.56
2023-02-02T07:48:47.469Z,99847.97
2023-02-02T07:52:49.333Z,99855.44
2023-02-02T07:56:51.191Z,99842.22
2023-02-02T08:00:53.244Z,99873.44
2023-02-02T08:04:55.400Z,99871.22
2023-02-02T08:08:57.373Z,99871.94
2023-02-02T08:13:02.053Z,99880.06
2023-02-02T08:17:04.080Z,99880.44
2023-02-02T08:21:08.466Z,99891.50
2023-02-02T08:25:10.292Z,99898.22
2023-02-02T08:29:12.126Z,99890.91
2023-02-02T08:33:14.047Z,99899.50
2023-02-02T08:37:15.818Z,99914.50
2023-02-02T08:41:21.924Z,99911.66
2023-02-02T08:46:01.237Z,99918.03
2023-02-02T08:49:45.706Z,99918.03
2023-02-02T08:53:47.685Z,99916.59
2023-02-02T08:57:51.431Z,99914.03
2023-02-02T09:01:53.247Z,99926.38
2023-02-02T09:05:58.186Z,99945.75
2023-02-02T09:10:03.122Z,99929.44
2023-02-02T09:14:06.918Z,99929.00
2023-02-02T09:18:11.920Z,99949.00
2023-02-02T09:22:13.765Z,99950.44
2023-02-02T09:26:19.408Z,99964.50
2023-02-02T09:30:21.468Z,99958.03
2023-02-02T09:34:23.195Z,99963.66
2023-02-02T09:38:27.129Z,99975.94
2023-02-02T09:43:02.146Z,99977.72
2023-02-02T09:47:35.664Z,99969.94
2023-02-02T09:51:43.438Z,99982.06
2023-02-02T09:55:50.680Z,99981.13
2023-02-02T09:59:55.072Z,100006.09
2023-02-02T10:04:21.572Z,100008.00
2023-02-02T10:08:49.088Z,100013.22
2023-02-02T10:13:20.399Z,100001.66
2023-02-02T10:17:42.255Z,100010.16
2023-02-02T10:22:06.559Z,100007.09
2023-02-02T10:26:36.785Z,100025.47
2023-02-02T10:31:01.184Z,100013.31
2023-02-02T10:35:38.369Z,100015.47
2023-02-02T10:40:22.997Z,100021.22
2023-02-02T10:44:57.147Z,100014.63
2023-02-02T10:49:33.123Z,100015.72
2023-02-02T10:53:36.245Z,100013.69
2023-02-02T10:58:20.993Z,100010.06
2023-02-02T11:02:25.458Z,100016.06
2023-02-02T11:06:46.312Z,100018.78
2023-02-02T11:10:52.329Z,100033.88
2023-02-02T11:15:27.301Z,100024.81
2023-02-02T11:19:30.582Z,100033.50
2023-02-02T11:23:33.684Z,100037.09
2023-02-02T11:27:40.071Z,100038.72
2023-02-02T11:31:42.372Z,100035.66
2023-02-02T11:36:00.356Z,100039.94
2023-02-02T11:40:34.765Z,100052.19
2023-02-02T11:44:37.436Z,100056.41
2023-02-02T11:48:48.621Z,100061.63
2023-02-02T11:52:52.783Z,100069.38
2023-02-02T11:56:57.727Z,100053.81
2023-02-02T12:01:03.164Z,100065.00
2023-02-02T12:05:19.970Z,100073.53
2023-02-02T12:09:24.827Z,100061.63
2023-02-02T12:14:24.386Z,100068.47
2023-02-02T12:18:54.311Z,100069.22
2023-02-02T12:28:16.547Z,100072.44
2023-02-02T12:32:46.072Z,100061.25
2023-02-02T12:36:54.349Z,100059.50
2023-02-02T12:41:30.308Z,100081.22
2023-02-02T12:46:00.891Z,100060.22
2023-02-02T12:50:20.568Z,100067.22
2023-02-02T12:55:24.342Z,100087.13
2023-02-02T12:59:53.427Z,100097.31
2023-02-02T13:04:33.405Z,100089.72
2023-02-02T13:08:52.189Z,100104.28
2023-02-02T13:13:29.631Z,100109.72
2023-02-02T13:17:53.853Z,100106.41
2023-02-02T13:21:57.087Z,100114.28
2023-02-02T13:26:58.390Z,100098.09
2023-02-02T13:31:01.400Z,100121.28
2023-02-02T13:35:59.083Z,100123.50
2023-02-02T13:40:25.558Z,100133.31
2023-02-02T13:44:38.886Z,100145.25
2023-02-02T13:49:24.633Z,100143.38
2023-02-02T13:53:37.111Z,100160.25
2023-02-02T14:02:35.842Z,100164.88
2023-02-02T14:07:10.906Z,100180.88
2023-02-02T14:11:19.996Z,100197.22
2023-02-02T14:15:43.706Z,100187.19
2023-02-02T14:19:54.443Z,100177.63
2023-02-02T14:23:57.747Z,100191.09
2023-02-02T14:28:44.110Z,100190.84
2023-02-02T14:32:46.697Z,100199.34
2023-02-02T14:37:02.463Z,100214.00
2023-02-02T14:42:15.553Z,100228.16
2023-02-02T14:46:33.092Z,100232.00
2023-02-02T14:50:37.879Z,100225.72
2023-02-02T14:54:51.914Z,100233.75
2023-02-02T14:59:00.572Z,100238.47
2023-02-02T15:03:53.346Z,100257.47
2023-02-02T15:08:22.121Z,100266.97
2023-02-02T15:13:43.929Z,100265.06
2023-02-02T15:18:35.262Z,100280.13
2023-02-02T15:22:54.872Z,100271.50
2023-02-02T15:27:10.168Z,100288.75
2023-02-02T15:31:48.045Z,100290.44
2023-02-02T15:36:07.717Z,100311.88
2023-02-02T15:40:34.980Z,100316.69
2023-02-02T15:44:42.193Z,100315.84
2023-02-02T15:49:04.368Z,100320.22
2023-02-02T15:53:11.958Z,100335.94
2023-02-02T15:57:24.105Z,100357.81
2023-02-02T16:01:27.491Z,100380.84
2023-02-02T16:05:32.546Z,100396.16
2023-02-02T16:09:35.608Z,100397.94
2023-02-02T16:13:40.819Z,100402.41
2023-02-02T16:17:45.987Z,100413.50
2023-02-02T16:22:04.739Z,100424.59
2023-02-02T16:26:18.077Z,100458.78
2023-02-02T16:30:39.082Z,100484.66
2023-02-02T16:34:47.104Z,100502.56
2023-02-02T16:38:57.680Z,100506.75
2023-02-02T16:44:00.369Z,100497.78
2023-02-02T16:48:32.838Z,100512.56
2023-02-02T16:52:57.474Z,100515.31
2023-02-02T16:57:07.252Z,100509.66
2023-02-02T17:10:40.282Z,100541.81
2023-02-02T17:15:20.893Z,100540.69
2023-02-02T17:19:47.720Z,100548.66
2023-02-02T17:24:12.409Z,100560.84
2023-02-02T17:28:25.513Z,100565.03
2023-02-02T17:38:05.323Z,100591.19
2023-02-02T17:42:16.306Z,100588.94
2023-02-02T17:45:37.030Z,100580.47
2023-02-02T17:46:40.006Z,100618.94
2023-02-02T17:50:49.327Z,100620.72
2023-02-02T17:54:57.112Z,100631.22
2023-02-02T17:59:01.658Z,100631.81
2023-02-02T18:03:31.872Z,100641.22
2023-02-02T18:07:40.051Z,100641.13
2023-02-02T18:11:55.304Z,100625.03
2023-02-02T18:20:53.230Z,100636.63
2023-02-02T18:25:30.435Z,100647.88
2023-02-02T18:29:36.469Z,100653.25
2023-02-02T18:33:54.125Z,100651.19
2023-02-02T18:37:59.084Z,100647.00
2023-02-02T18:42:37.490Z,100658.41
2023-02-02T18:46:39.638Z,100658.84
2023-02-02T18:52:15.563Z,100650.56
2023-02-02T18:57:42.331Z,100657.59
2023-02-02T19:02:24.077Z,100672.00
2023-02-02T19:07:03.529Z,100661.09
2023-02-02T19:11:29.110Z,100658.31
2023-02-02T19:15:40.724Z,100671.75
2023-02-02T19:19:45.943Z,100667.28
2023-02-02T19:23:51.315Z,100669.69
2023-02-02T19:28:03.769Z,100671.16
2023-02-02T19:32:29.371Z,100677.34
2023-02-02T20:55:01.960Z,100693.94
2023-02-02T20:59:07.411Z,100696.44
2023-02-02T21:03:13.504Z,100703.28
2023-02-02T21:07:22.157Z,100698.19
2023-02-02T21:11:24.245Z,100708.53
2023-02-02T21:15:31.583Z,100701.06
2023-02-02T21:19:43.560Z,100699.59
2023-02-02T21:24:01.962Z,100696.81
2023-02-02T21:28:04.190Z,100696.06
2023-02-02T21:32:11.682Z,100687.75
2023-02-02T21:36:32.371Z,100694.41
2023-02-02T21:40:39.299Z,100687.19
2023-02-02T21:45:14.246Z,100693.94
2023-02-02T21:49:37.071Z,100682.56
2023-02-02T21:53:39.085Z,100690.25
2023-02-02T21:57:42.304Z,100669.97
2023-02-02T22:01:47.687Z,100675.50
2023-02-02T22:05:52.030Z,100680.91
2023-02-02T22:10:07.254Z,100691.13
2023-02-02T22:14:33.565Z,100690.50
2023-02-02T22:18:35.606Z,100681.16
2023-02-02T22:22:37.688Z,100681.72
2023-02-02T22:26:41.789Z,100686.78
2023-02-02T22:30:55.295Z,100675.16
2023-02-02T22:34:59.965Z,100682.34
2023-02-02T22:39:02.060Z,100680.66
2023-02-02T22:43:07.222Z,100676.19
2023-02-02T22:47:09.207Z,100689.41
2023-02-02T22:51:11.107Z,100666.53
2023-02-02T22:55:13.558Z,100673.97
2023-02-02T22:59:16.404Z,100674.47
2023-02-02T23:03:18.539Z,100669.53
2023-02-02T23:07:20.434Z,100651.56
2023-02-02T23:11:22.234Z,100660.44
2023-02-02T23:15:24.107Z,100663.13
2023-02-02T23:19:25.948Z,100637.03
2023-02-02T23:23:27.858Z,100648.22
2023-02-02T23:27:30.854Z,100646.66
2023-02-02T23:31:32.796Z,100659.63
2023-02-02T23:35:34.829Z,100656.09
2023-02-02T23:39:36.823Z,100662.09
2023-02-02T23:43:38.668Z,100661.38
2023-02-02T23:47:40.447Z,100655.16
2023-02-02T23:51:42.311Z,100636.44
2023-02-02T23:55:45.783Z,100645.59
2023-02-02T23:59:47.667Z,100639.78
